sensor_id;sensor_type;location;lat;lon;timestamp;P1;durP1;ratioP1;P2;durP2;ratioP2
57389;SDS011;43217;52.694;6.214;2023-11-21T00:00:13;84.05;;;30.98;;
57389;SDS011;43217;52.694;6.214;2023-11-21T00:02:40;101.40;;;32.95;;
57389;SDS011;43217;52.694;6.214;2023-11-21T00:05:07;89.45;;;31.20;;
57389;SDS011;43217;52.694;6.214;2023-11-21T00:07:37;82.20;;;30.27;;
57389;SDS011;43217;52.694;6.214;2023-11-21T00:10:03;108.18;;;33.25;;
57389;SDS011;43217;52.694;6.214;2023-11-21T00:12:30;90.95;;;31.48;;
57389;SDS011;43217;52.694;6.214;2023-11-21T00:14:56;90.13;;;32.05;;
57389;SDS011;43217;52.694;6.214;2023-11-21T00:17:22;89.25;;;30.55;;
57389;SDS011;43217;52.694;6.214;2023-11-21T00:19:48;80.78;;;29.83;;
57389;SDS011;43217;52.694;6.214;2023-11-21T00:22:14;72.38;;;28.77;;
57389;SDS011;43217;52.694;6.214;2023-11-21T00:24:41;75.57;;;29.55;;
57389;SDS011;43217;52.694;6.214;2023-11-21T00:27:06;84.53;;;29.85;;
57389;SDS011;43217;52.694;6.214;2023-11-21T00:29:32;81.82;;;29.40;;
57389;SDS011;43217;52.694;6.214;2023-11-21T00:31:57;78.72;;;29.45;;
57389;SDS011;43217;52.694;6.214;2023-11-21T00:34:23;83.50;;;29.95;;
57389;SDS011;43217;52.694;6.214;2023-11-21T00:36:49;75.38;;;28.67;;
57389;SDS011;43217;52.694;6.214;2023-11-21T00:39:14;75.65;;;28.15;;
57389;SDS011;43217;52.694;6.214;2023-11-21T00:41:40;77.65;;;29.55;;
57389;SDS011;43217;52.694;6.214;2023-11-21T00:44:07;77.70;;;28.35;;
57389;SDS011;43217;52.694;6.214;2023-11-21T00:46:32;78.93;;;29.25;;
57389;SDS011;43217;52.694;6.214;2023-11-21T00:48:58;75.72;;;28.42;;
57389;SDS011;43217;52.694;6.214;2023-11-21T00:51:23;78.22;;;29.50;;
57389;SDS011;43217;52.694;6.214;2023-11-21T00:53:49;77.07;;;28.25;;
57389;SDS011;43217;52.694;6.214;2023-11-21T00:56:15;79.85;;;29.65;;
57389;SDS011;43217;52.694;6.214;2023-11-21T00:58:41;73.57;;;30.70;;
57389;SDS011;43217;52.694;6.214;2023-11-21T01:01:14;72.95;;;27.25;;
57389;SDS011;43217;52.694;6.214;2023-11-21T01:03:40;68.32;;;27.88;;
57389;SDS011;43217;52.694;6.214;2023-11-21T01:06:06;71.18;;;28.85;;
57389;SDS011;43217;52.694;6.214;2023-11-21T01:08:32;80.55;;;28.67;;
57389;SDS011;43217;52.694;6.214;2023-11-21T01:10:57;76.43;;;29.42;;
57389;SDS011;43217;52.694;6.214;2023-11-21T01:13:23;78.43;;;29.40;;
57389;SDS011;43217;52.694;6.214;2023-11-21T01:15:49;79.18;;;30.00;;
57389;SDS011;43217;52.694;6.214;2023-11-21T01:18:14;79.38;;;29.65;;
57389;SDS011;43217;52.694;6.214;2023-11-21T01:20:40;94.63;;;30.60;;
57389;SDS011;43217;52.694;6.214;2023-11-21T01:23:05;86.95;;;30.65;;
57389;SDS011;43217;52.694;6.214;2023-11-21T01:25:31;71.57;;;29.10;;
57389;SDS011;43217;52.694;6.214;2023-11-21T01:27:56;77.07;;;30.15;;
57389;SDS011;43217;52.694;6.214;2023-11-21T01:30:22;92.22;;;30.60;;
57389;SDS011;43217;52.694;6.214;2023-11-21T01:32:48;80.00;;;30.35;;
57389;SDS011;43217;52.694;6.214;2023-11-21T01:35:13;80.38;;;30.98;;
57389;SDS011;43217;52.694;6.214;2023-11-21T01:37:39;75.60;;;29.65;;
57389;SDS011;43217;52.694;6.214;2023-11-21T01:40:05;80.55;;;30.17;;
57389;SDS011;43217;52.694;6.214;2023-11-21T01:42:35;78.65;;;29.80;;
57389;SDS011;43217;52.694;6.214;2023-11-21T01:45:00;65.40;;;27.20;;
57389;SDS011;43217;52.694;6.214;2023-11-21T01:47:30;71.25;;;28.05;;
57389;SDS011;43217;52.694;6.214;2023-11-21T01:49:57;79.22;;;28.58;;
57389;SDS011;43217;52.694;6.214;2023-11-21T01:52:23;70.35;;;27.65;;
57389;SDS011;43217;52.694;6.214;2023-11-21T01:54:49;82.20;;;29.10;;
57389;SDS011;43217;52.694;6.214;2023-11-21T01:57:15;64.10;;;27.15;;
57389;SDS011;43217;52.694;6.214;2023-11-21T01:59:41;80.18;;;29.08;;
57389;SDS011;43217;52.694;6.214;2023-11-21T02:02:07;70.47;;;28.00;;
57389;SDS011;43217;52.694;6.214;2023-11-21T02:04:34;68.20;;;26.90;;
57389;SDS011;43217;52.694;6.214;2023-11-21T02:07:01;73.18;;;27.40;;
57389;SDS011;43217;52.694;6.214;2023-11-21T02:09:30;74.05;;;29.25;;
57389;SDS011;43217;52.694;6.214;2023-11-21T02:14:24;85.43;;;29.25;;
57389;SDS011;43217;52.694;6.214;2023-11-21T02:19:17;80.28;;;29.30;;
57389;SDS011;43217;52.694;6.214;2023-11-21T02:21:45;76.15;;;28.05;;
57389;SDS011;43217;52.694;6.214;2023-11-21T02:24:13;80.25;;;30.20;;
57389;SDS011;43217;52.694;6.214;2023-11-21T02:26:38;79.13;;;28.75;;
57389;SDS011;43217;52.694;6.214;2023-11-21T02:29:04;82.75;;;30.10;;
57389;SDS011;43217;52.694;6.214;2023-11-21T02:31:29;82.22;;;29.98;;
57389;SDS011;43217;52.694;6.214;2023-11-21T02:33:57;79.57;;;29.80;;
57389;SDS011;43217;52.694;6.214;2023-11-21T02:36:23;88.53;;;32.30;;
57389;SDS011;43217;52.694;6.214;2023-11-21T02:38:49;102.72;;;32.92;;
57389;SDS011;43217;52.694;6.214;2023-11-21T02:41:15;90.68;;;32.05;;
57389;SDS011;43217;52.694;6.214;2023-11-21T02:43:40;92.70;;;34.58;;
57389;SDS011;43217;52.694;6.214;2023-11-21T02:46:06;119.85;;;35.03;;
57389;SDS011;43217;52.694;6.214;2023-11-21T02:48:33;108.75;;;36.67;;
57389;SDS011;43217;52.694;6.214;2023-11-21T02:50:59;125.38;;;37.20;;
57389;SDS011;43217;52.694;6.214;2023-11-21T02:53:24;110.15;;;36.33;;
57389;SDS011;43217;52.694;6.214;2023-11-21T02:55:50;159.05;;;40.55;;
57389;SDS011;43217;52.694;6.214;2023-11-21T02:58:17;127.30;;;38.10;;
57389;SDS011;43217;52.694;6.214;2023-11-21T03:00:42;101.43;;;36.78;;
57389;SDS011;43217;52.694;6.214;2023-11-21T03:03:08;110.15;;;36.92;;
57389;SDS011;43217;52.694;6.214;2023-11-21T03:05:33;108.28;;;35.78;;
57389;SDS011;43217;52.694;6.214;2023-11-21T03:08:00;121.27;;;36.73;;
57389;SDS011;43217;52.694;6.214;2023-11-21T03:10:26;108.95;;;35.53;;
57389;SDS011;43217;52.694;6.214;2023-11-21T03:12:52;116.93;;;38.90;;
57389;SDS011;43217;52.694;6.214;2023-11-21T03:15:17;120.03;;;40.00;;
57389;SDS011;43217;52.694;6.214;2023-11-21T03:17:43;128.65;;;40.78;;
57389;SDS011;43217;52.694;6.214;2023-11-21T03:20:09;93.18;;;36.88;;
57389;SDS011;43217;52.694;6.214;2023-11-21T03:22:38;96.10;;;37.97;;
57389;SDS011;43217;52.694;6.214;2023-11-21T03:25:04;105.97;;;38.72;;
57389;SDS011;43217;52.694;6.214;2023-11-21T03:27:30;123.50;;;41.13;;
57389;SDS011;43217;52.694;6.214;2023-11-21T03:29:56;106.18;;;38.45;;
57389;SDS011;43217;52.694;6.214;2023-11-21T03:32:22;102.95;;;38.17;;
57389;SDS011;43217;52.694;6.214;2023-11-21T03:34:55;133.25;;;42.97;;
57389;SDS011;43217;52.694;6.214;2023-11-21T03:37:22;138.52;;;44.38;;
57389;SDS011;43217;52.694;6.214;2023-11-21T03:39:48;143.30;;;45.75;;
57389;SDS011;43217;52.694;6.214;2023-11-21T03:42:14;121.28;;;42.47;;
57389;SDS011;43217;52.694;6.214;2023-11-21T03:44:39;118.65;;;43.13;;
57389;SDS011;43217;52.694;6.214;2023-11-21T03:47:05;133.52;;;44.05;;
57389;SDS011;43217;52.694;6.214;2023-11-21T03:49:31;134.75;;;44.33;;
57389;SDS011;43217;52.694;6.214;2023-11-21T03:51:56;101.32;;;41.20;;
57389;SDS011;43217;52.694;6.214;2023-11-21T03:54:22;115.95;;;41.95;;
57389;SDS011;43217;52.694;6.214;2023-11-21T03:56:47;117.35;;;41.83;;
57389;SDS011;43217;52.694;6.214;2023-11-21T03:59:13;108.22;;;42.55;;
57389;SDS011;43217;52.694;6.214;2023-11-21T04:01:38;101.47;;;41.05;;
57389;SDS011;43217;52.694;6.214;2023-11-21T04:04:04;118.45;;;42.45;;
57389;SDS011;43217;52.694;6.214;2023-11-21T04:06:29;120.70;;;42.47;;
57389;SDS011;43217;52.694;6.214;2023-11-21T04:11:23;106.20;;;42.92;;
57389;SDS011;43217;52.694;6.214;2023-11-21T04:13:49;112.78;;;42.65;;
57389;SDS011;43217;52.694;6.214;2023-11-21T04:16:14;103.72;;;41.33;;
57389;SDS011;43217;52.694;6.214;2023-11-21T04:18:41;115.03;;;41.45;;
57389;SDS011;43217;52.694;6.214;2023-11-21T04:21:07;108.15;;;42.33;;
57389;SDS011;43217;52.694;6.214;2023-11-21T04:23:33;111.63;;;42.58;;
57389;SDS011;43217;52.694;6.214;2023-11-21T04:25:59;94.38;;;40.13;;
57389;SDS011;43217;52.694;6.214;2023-11-21T04:28:25;117.38;;;42.55;;
57389;SDS011;43217;52.694;6.214;2023-11-21T04:30:51;127.45;;;44.65;;
57389;SDS011;43217;52.694;6.214;2023-11-21T04:33:16;124.13;;;43.20;;
57389;SDS011;43217;52.694;6.214;2023-11-21T04:35:42;122.20;;;43.33;;
57389;SDS011;43217;52.694;6.214;2023-11-21T04:38:08;107.03;;;41.58;;
57389;SDS011;43217;52.694;6.214;2023-11-21T04:40:33;121.47;;;41.45;;
57389;SDS011;43217;52.694;6.214;2023-11-21T04:42:59;115.43;;;42.83;;
57389;SDS011;43217;52.694;6.214;2023-11-21T04:45:24;123.35;;;43.20;;
57389;SDS011;43217;52.694;6.214;2023-11-21T04:47:50;107.72;;;41.28;;
57389;SDS011;43217;52.694;6.214;2023-11-21T04:50:17;107.45;;;41.13;;
57389;SDS011;43217;52.694;6.214;2023-11-21T04:52:44;143.07;;;44.60;;
57389;SDS011;43217;52.694;6.214;2023-11-21T04:55:09;128.10;;;42.63;;
57389;SDS011;43217;52.694;6.214;2023-11-21T04:57:35;173.02;;;47.60;;
57389;SDS011;43217;52.694;6.214;2023-11-21T05:00:01;131.73;;;43.53;;
57389;SDS011;43217;52.694;6.214;2023-11-21T05:02:30;121.70;;;42.17;;
57389;SDS011;43217;52.694;6.214;2023-11-21T05:04:59;128.00;;;44.47;;
57389;SDS011;43217;52.694;6.214;2023-11-21T05:07:25;132.02;;;43.40;;
57389;SDS011;43217;52.694;6.214;2023-11-21T05:09:54;143.68;;;46.42;;
57389;SDS011;43217;52.694;6.214;2023-11-21T05:12:21;149.93;;;45.88;;
57389;SDS011;43217;52.694;6.214;2023-11-21T05:14:48;137.85;;;45.38;;
57389;SDS011;43217;52.694;6.214;2023-11-21T05:17:14;142.48;;;46.30;;
57389;SDS011;43217;52.694;6.214;2023-11-21T05:19:39;129.80;;;42.30;;
57389;SDS011;43217;52.694;6.214;2023-11-21T05:22:06;110.30;;;42.03;;
57389;SDS011;43217;52.694;6.214;2023-11-21T05:24:33;136.93;;;45.28;;
57389;SDS011;43217;52.694;6.214;2023-11-21T05:26:58;124.05;;;41.63;;
57389;SDS011;43217;52.694;6.214;2023-11-21T05:29:24;127.45;;;44.50;;
57389;SDS011;43217;52.694;6.214;2023-11-21T05:31:50;146.45;;;44.90;;
57389;SDS011;43217;52.694;6.214;2023-11-21T05:34:16;105.60;;;40.30;;
57389;SDS011;43217;52.694;6.214;2023-11-21T05:36:43;145.23;;;44.63;;
57389;SDS011;43217;52.694;6.214;2023-11-21T05:39:10;144.80;;;44.53;;
57389;SDS011;43217;52.694;6.214;2023-11-21T05:41:36;166.45;;;46.38;;
57389;SDS011;43217;52.694;6.214;2023-11-21T05:44:02;135.82;;;45.92;;
57389;SDS011;43217;52.694;6.214;2023-11-21T05:46:28;152.88;;;46.00;;
57389;SDS011;43217;52.694;6.214;2023-11-21T05:48:53;151.35;;;44.20;;
57389;SDS011;43217;52.694;6.214;2023-11-21T05:51:19;169.55;;;48.15;;
57389;SDS011;43217;52.694;6.214;2023-11-21T05:53:45;170.57;;;49.10;;
57389;SDS011;43217;52.694;6.214;2023-11-21T05:56:11;162.73;;;47.22;;
57389;SDS011;43217;52.694;6.214;2023-11-21T05:58:38;191.48;;;50.75;;
57389;SDS011;43217;52.694;6.214;2023-11-21T06:01:05;132.00;;;42.10;;
57389;SDS011;43217;52.694;6.214;2023-11-21T06:03:32;128.23;;;46.65;;
57389;SDS011;43217;52.694;6.214;2023-11-21T06:05:58;169.15;;;48.83;;
57389;SDS011;43217;52.694;6.214;2023-11-21T06:08:24;159.73;;;48.45;;
57389;SDS011;43217;52.694;6.214;2023-11-21T06:10:49;133.38;;;46.35;;
57389;SDS011;43217;52.694;6.214;2023-11-21T06:13:15;160.70;;;46.97;;
57389;SDS011;43217;52.694;6.214;2023-11-21T06:15:41;155.35;;;48.25;;
57389;SDS011;43217;52.694;6.214;2023-11-21T06:18:07;126.35;;;45.85;;
57389;SDS011;43217;52.694;6.214;2023-11-21T06:20:35;132.40;;;45.55;;
57389;SDS011;43217;52.694;6.214;2023-11-21T06:23:02;150.43;;;46.72;;
57389;SDS011;43217;52.694;6.214;2023-11-21T06:25:28;148.18;;;47.45;;
57389;SDS011;43217;52.694;6.214;2023-11-21T06:27:54;206.80;;;52.15;;
57389;SDS011;43217;52.694;6.214;2023-11-21T06:30:21;181.23;;;51.03;;
57389;SDS011;43217;52.694;6.214;2023-11-21T06:32:48;199.37;;;53.83;;
57389;SDS011;43217;52.694;6.214;2023-11-21T06:35:14;168.15;;;52.20;;
57389;SDS011;43217;52.694;6.214;2023-11-21T06:37:40;166.65;;;51.97;;
57389;SDS011;43217;52.694;6.214;2023-11-21T06:40:06;175.07;;;54.38;;
57389;SDS011;43217;52.694;6.214;2023-11-21T06:42:32;146.93;;;47.65;;
57389;SDS011;43217;52.694;6.214;2023-11-21T06:44:58;167.05;;;52.55;;
57389;SDS011;43217;52.694;6.214;2023-11-21T06:47:24;173.32;;;49.72;;
57389;SDS011;43217;52.694;6.214;2023-11-21T06:49:50;120.18;;;43.17;;
57389;SDS011;43217;52.694;6.214;2023-11-21T06:52:17;156.38;;;53.22;;
57389;SDS011;43217;52.694;6.214;2023-11-21T06:54:46;104.88;;;40.05;;
57389;SDS011;43217;52.694;6.214;2023-11-21T06:57:12;114.63;;;39.97;;
57389;SDS011;43217;52.694;6.214;2023-11-21T06:59:38;123.63;;;41.17;;
57389;SDS011;43217;52.694;6.214;2023-11-21T07:02:04;145.82;;;51.67;;
57389;SDS011;43217;52.694;6.214;2023-11-21T07:04:31;123.82;;;40.15;;
57389;SDS011;43217;52.694;6.214;2023-11-21T07:07:03;146.57;;;59.50;;
57389;SDS011;43217;52.694;6.214;2023-11-21T07:09:29;160.45;;;63.67;;
57389;SDS011;43217;52.694;6.214;2023-11-21T07:11:56;166.43;;;56.78;;
57389;SDS011;43217;52.694;6.214;2023-11-21T07:14:21;140.45;;;56.45;;
57389;SDS011;43217;52.694;6.214;2023-11-21T07:16:47;137.00;;;56.60;;
57389;SDS011;43217;52.694;6.214;2023-11-21T07:19:13;133.98;;;50.92;;
57389;SDS011;43217;52.694;6.214;2023-11-21T07:21:39;130.82;;;42.05;;
57389;SDS011;43217;52.694;6.214;2023-11-21T07:24:06;124.55;;;40.17;;
57389;SDS011;43217;52.694;6.214;2023-11-21T07:26:33;136.85;;;60.67;;
57389;SDS011;43217;52.694;6.214;2023-11-21T07:28:59;127.80;;;42.20;;
57389;SDS011;43217;52.694;6.214;2023-11-21T07:31:25;139.98;;;43.05;;
57389;SDS011;43217;52.694;6.214;2023-11-21T07:33:51;158.82;;;44.97;;
57389;SDS011;43217;52.694;6.214;2023-11-21T07:36:17;134.90;;;41.78;;
57389;SDS011;43217;52.694;6.214;2023-11-21T07:38:45;135.43;;;41.92;;
57389;SDS011;43217;52.694;6.214;2023-11-21T07:41:12;125.80;;;41.80;;
57389;SDS011;43217;52.694;6.214;2023-11-21T07:43:40;102.55;;;39.85;;
57389;SDS011;43217;52.694;6.214;2023-11-21T07:46:06;97.22;;;37.83;;
57389;SDS011;43217;52.694;6.214;2023-11-21T07:48:33;117.13;;;39.03;;
57389;SDS011;43217;52.694;6.214;2023-11-21T07:50:59;93.32;;;36.38;;
57389;SDS011;43217;52.694;6.214;2023-11-21T07:53:28;85.72;;;34.30;;
57389;SDS011;43217;52.694;6.214;2023-11-21T07:56:08;90.47;;;34.53;;
57389;SDS011;43217;52.694;6.214;2023-11-21T07:58:37;73.45;;;30.17;;
57389;SDS011;43217;52.694;6.214;2023-11-21T08:01:03;58.63;;;27.00;;
57389;SDS011;43217;52.694;6.214;2023-11-21T08:03:30;50.47;;;25.48;;
57389;SDS011;43217;52.694;6.214;2023-11-21T08:05:56;55.53;;;25.00;;
57389;SDS011;43217;52.694;6.214;2023-11-21T08:08:23;42.92;;;22.08;;
57389;SDS011;43217;52.694;6.214;2023-11-21T08:10:48;42.38;;;22.58;;
57389;SDS011;43217;52.694;6.214;2023-11-21T08:13:21;39.38;;;21.10;;
57389;SDS011;43217;52.694;6.214;2023-11-21T08:15:50;41.88;;;21.15;;
57389;SDS011;43217;52.694;6.214;2023-11-21T08:18:19;34.75;;;19.52;;
57389;SDS011;43217;52.694;6.214;2023-11-21T08:20:45;41.10;;;20.73;;
57389;SDS011;43217;52.694;6.214;2023-11-21T08:23:16;43.28;;;21.33;;
57389;SDS011;43217;52.694;6.214;2023-11-21T08:25:43;40.35;;;20.75;;
57389;SDS011;43217;52.694;6.214;2023-11-21T08:28:09;33.00;;;18.90;;
57389;SDS011;43217;52.694;6.214;2023-11-21T08:30:35;30.73;;;17.25;;
57389;SDS011;43217;52.694;6.214;2023-11-21T08:33:00;33.67;;;18.80;;
57389;SDS011;43217;52.694;6.214;2023-11-21T08:35:28;32.10;;;18.10;;
57389;SDS011;43217;52.694;6.214;2023-11-21T08:37:54;34.78;;;19.25;;
57389;SDS011;43217;52.694;6.214;2023-11-21T08:40:20;34.15;;;18.63;;
57389;SDS011;43217;52.694;6.214;2023-11-21T08:42:47;36.00;;;21.25;;
57389;SDS011;43217;52.694;6.214;2023-11-21T08:45:16;41.40;;;22.00;;
57389;SDS011;43217;52.694;6.214;2023-11-21T08:47:42;34.30;;;19.85;;
57389;SDS011;43217;52.694;6.214;2023-11-21T08:50:09;39.00;;;22.02;;
57389;SDS011;43217;52.694;6.214;2023-11-21T08:55:02;41.50;;;23.23;;
57389;SDS011;43217;52.694;6.214;2023-11-21T08:57:36;41.13;;;21.98;;
57389;SDS011;43217;52.694;6.214;2023-11-21T09:00:05;39.10;;;21.80;;
57389;SDS011;43217;52.694;6.214;2023-11-21T09:02:36;37.78;;;23.88;;
57389;SDS011;43217;52.694;6.214;2023-11-21T09:05:07;36.08;;;21.77;;
57389;SDS011;43217;52.694;6.214;2023-11-21T09:07:34;52.67;;;35.97;;
57389;SDS011;43217;52.694;6.214;2023-11-21T09:10:00;41.67;;;24.65;;
57389;SDS011;43217;52.694;6.214;2023-11-21T09:12:26;39.70;;;23.48;;
57389;SDS011;43217;52.694;6.214;2023-11-21T09:14:51;67.68;;;40.80;;
57389;SDS011;43217;52.694;6.214;2023-11-21T09:17:17;32.78;;;20.85;;
57389;SDS011;43217;52.694;6.214;2023-11-21T09:19:43;43.97;;;27.65;;
57389;SDS011;43217;52.694;6.214;2023-11-21T09:22:12;45.80;;;25.95;;
57389;SDS011;43217;52.694;6.214;2023-11-21T09:24:37;46.22;;;25.67;;
57389;SDS011;43217;52.694;6.214;2023-11-21T09:27:03;52.45;;;29.63;;
57389;SDS011;43217;52.694;6.214;2023-11-21T09:29:30;39.30;;;21.15;;
57389;SDS011;43217;52.694;6.214;2023-11-21T09:31:56;39.60;;;20.70;;
57389;SDS011;43217;52.694;6.214;2023-11-21T09:34:27;37.88;;;20.23;;
57389;SDS011;43217;52.694;6.214;2023-11-21T09:36:52;45.03;;;26.92;;
57389;SDS011;43217;52.694;6.214;2023-11-21T09:39:19;35.58;;;20.98;;
57389;SDS011;43217;52.694;6.214;2023-11-21T09:41:51;33.65;;;18.60;;
57389;SDS011;43217;52.694;6.214;2023-11-21T09:44:34;42.30;;;21.27;;
57389;SDS011;43217;52.694;6.214;2023-11-21T09:47:02;34.47;;;19.65;;
57389;SDS011;43217;52.694;6.214;2023-11-21T09:49:28;34.55;;;20.15;;
57389;SDS011;43217;52.694;6.214;2023-11-21T09:51:59;29.08;;;18.15;;
57389;SDS011;43217;52.694;6.214;2023-11-21T09:54:31;34.03;;;19.50;;
57389;SDS011;43217;52.694;6.214;2023-11-21T09:56:57;30.60;;;19.08;;
57389;SDS011;43217;52.694;6.214;2023-11-21T09:59:25;34.00;;;19.15;;
57389;SDS011;43217;52.694;6.214;2023-11-21T10:01:56;33.80;;;16.15;;
57389;SDS011;43217;52.694;6.214;2023-11-21T10:04:23;37.73;;;20.23;;
57389;SDS011;43217;52.694;6.214;2023-11-21T10:06:49;34.28;;;15.65;;
57389;SDS011;43217;52.694;6.214;2023-11-21T10:09:16;31.13;;;15.38;;
57389;SDS011;43217;52.694;6.214;2023-11-21T10:11:42;36.75;;;16.30;;
57389;SDS011;43217;52.694;6.214;2023-11-21T10:14:10;31.85;;;15.82;;
57389;SDS011;43217;52.694;6.214;2023-11-21T10:16:38;34.13;;;16.25;;
57389;SDS011;43217;52.694;6.214;2023-11-21T10:19:04;35.60;;;15.97;;
57389;SDS011;43217;52.694;6.214;2023-11-21T10:21:34;32.35;;;16.10;;
57389;SDS011;43217;52.694;6.214;2023-11-21T10:24:00;42.15;;;17.08;;
57389;SDS011;43217;52.694;6.214;2023-11-21T10:26:27;45.28;;;18.20;;
57389;SDS011;43217;52.694;6.214;2023-11-21T10:29:00;55.27;;;23.43;;
57389;SDS011;43217;52.694;6.214;2023-11-21T10:31:29;67.45;;;29.77;;
57389;SDS011;43217;52.694;6.214;2023-11-21T10:34:14;71.25;;;29.38;;
57389;SDS011;43217;52.694;6.214;2023-11-21T10:36:40;69.25;;;29.17;;
57389;SDS011;43217;52.694;6.214;2023-11-21T10:39:07;82.43;;;37.25;;
57389;SDS011;43217;52.694;6.214;2023-11-21T10:41:32;69.90;;;32.15;;
57389;SDS011;43217;52.694;6.214;2023-11-21T10:44:01;59.53;;;30.67;;
57389;SDS011;43217;52.694;6.214;2023-11-21T10:46:31;51.83;;;25.95;;
57389;SDS011;43217;52.694;6.214;2023-11-21T10:48:57;53.63;;;28.13;;
57389;SDS011;43217;52.694;6.214;2023-11-21T10:51:23;54.53;;;27.70;;
57389;SDS011;43217;52.694;6.214;2023-11-21T10:53:53;56.00;;;28.10;;
57389;SDS011;43217;52.694;6.214;2023-11-21T10:56:19;42.50;;;24.60;;
57389;SDS011;43217;52.694;6.214;2023-11-21T10:58:48;46.28;;;24.38;;
57389;SDS011;43217;52.694;6.214;2023-11-21T11:01:18;38.75;;;22.98;;
57389;SDS011;43217;52.694;6.214;2023-11-21T11:03:46;37.47;;;22.02;;
57389;SDS011;43217;52.694;6.214;2023-11-21T11:06:13;31.75;;;21.27;;
57389;SDS011;43217;52.694;6.214;2023-11-21T11:08:40;35.72;;;22.15;;
57389;SDS011;43217;52.694;6.214;2023-11-21T11:11:06;39.47;;;22.85;;
57389;SDS011;43217;52.694;6.214;2023-11-21T11:13:33;39.67;;;25.25;;
57389;SDS011;43217;52.694;6.214;2023-11-21T11:15:59;43.30;;;28.73;;
57389;SDS011;43217;52.694;6.214;2023-11-21T11:18:32;37.80;;;26.05;;
57389;SDS011;43217;52.694;6.214;2023-11-21T11:21:06;54.97;;;38.80;;
57389;SDS011;43217;52.694;6.214;2023-11-21T11:26:44;37.00;;;25.83;;
57389;SDS011;43217;52.694;6.214;2023-11-21T11:34:32;32.63;;;22.85;;
57389;SDS011;43217;52.694;6.214;2023-11-21T11:37:03;31.75;;;22.02;;
57389;SDS011;43217;52.694;6.214;2023-11-21T11:39:36;31.88;;;22.02;;
57389;SDS011;43217;52.694;6.214;2023-11-21T11:42:15;29.85;;;21.40;;
57389;SDS011;43217;52.694;6.214;2023-11-21T11:47:14;32.88;;;22.25;;
57389;SDS011;43217;52.694;6.214;2023-11-21T11:50:14;29.73;;;21.45;;
57389;SDS011;43217;52.694;6.214;2023-11-21T11:52:37;33.20;;;22.95;;
57389;SDS011;43217;52.694;6.214;2023-11-21T11:55:07;33.80;;;22.50;;
57389;SDS011;43217;52.694;6.214;2023-11-21T11:57:38;33.05;;;22.55;;
57389;SDS011;43217;52.694;6.214;2023-11-21T12:00:09;33.53;;;22.15;;
57389;SDS011;43217;52.694;6.214;2023-11-21T12:02:41;31.60;;;21.75;;
57389;SDS011;43217;52.694;6.214;2023-11-21T12:05:11;34.08;;;21.42;;
57389;SDS011;43217;52.694;6.214;2023-11-21T12:07:40;30.15;;;21.70;;
57389;SDS011;43217;52.694;6.214;2023-11-21T12:10:19;30.10;;;21.48;;
57389;SDS011;43217;52.694;6.214;2023-11-21T12:13:13;26.52;;;21.50;;
57389;SDS011;43217;52.694;6.214;2023-11-21T12:15:38;26.52;;;20.50;;
57389;SDS011;43217;52.694;6.214;2023-11-21T12:18:06;28.15;;;20.70;;
57389;SDS011;43217;52.694;6.214;2023-11-21T12:20:33;26.40;;;21.50;;
57389;SDS011;43217;52.694;6.214;2023-11-21T12:23:03;27.17;;;20.98;;
57389;SDS011;43217;52.694;6.214;2023-11-21T12:25:30;22.98;;;18.77;;
57389;SDS011;43217;52.694;6.214;2023-11-21T12:28:00;24.48;;;19.10;;
57389;SDS011;43217;52.694;6.214;2023-11-21T12:30:33;18.27;;;16.33;;
57389;SDS011;43217;52.694;6.214;2023-11-21T12:33:03;16.63;;;14.90;;
57389;SDS011;43217;52.694;6.214;2023-11-21T12:35:33;17.65;;;15.32;;
57389;SDS011;43217;52.694;6.214;2023-11-21T12:37:59;16.42;;;13.93;;
57389;SDS011;43217;52.694;6.214;2023-11-21T12:40:28;14.88;;;13.38;;
57389;SDS011;43217;52.694;6.214;2023-11-21T12:42:57;14.57;;;13.07;;
57389;SDS011;43217;52.694;6.214;2023-11-21T12:45:25;17.58;;;13.27;;
57389;SDS011;43217;52.694;6.214;2023-11-21T12:47:56;15.15;;;13.57;;
57389;SDS011;43217;52.694;6.214;2023-11-21T12:50:25;15.82;;;14.25;;
57389;SDS011;43217;52.694;6.214;2023-11-21T12:53:08;15.50;;;13.88;;
57389;SDS011;43217;52.694;6.214;2023-11-21T12:55:37;15.45;;;13.70;;
57389;SDS011;43217;52.694;6.214;2023-11-21T12:58:04;14.98;;;13.48;;
57389;SDS011;43217;52.694;6.214;2023-11-21T13:00:35;14.95;;;13.38;;
57389;SDS011;43217;52.694;6.214;2023-11-21T13:03:04;15.52;;;13.20;;
57389;SDS011;43217;52.694;6.214;2023-11-21T13:05:35;14.40;;;12.98;;
57389;SDS011;43217;52.694;6.214;2023-11-21T13:08:08;21.20;;;17.50;;
57389;SDS011;43217;52.694;6.214;2023-11-21T13:10:38;17.38;;;15.05;;
57389;SDS011;43217;52.694;6.214;2023-11-21T13:13:05;15.32;;;13.73;;
57389;SDS011;43217;52.694;6.214;2023-11-21T13:15:34;14.00;;;12.70;;
57389;SDS011;43217;52.694;6.214;2023-11-21T13:18:03;12.82;;;11.63;;
57389;SDS011;43217;52.694;6.214;2023-11-21T13:20:29;12.68;;;11.32;;
57389;SDS011;43217;52.694;6.214;2023-11-21T13:22:57;12.90;;;11.50;;
57389;SDS011;43217;52.694;6.214;2023-11-21T13:25:33;12.32;;;11.13;;
57389;SDS011;43217;52.694;6.214;2023-11-21T13:27:59;12.23;;;11.02;;
57389;SDS011;43217;52.694;6.214;2023-11-21T13:30:28;13.25;;;11.93;;
57389;SDS011;43217;52.694;6.214;2023-11-21T13:33:00;11.98;;;10.77;;
57389;SDS011;43217;52.694;6.214;2023-11-21T13:35:30;13.10;;;11.70;;
57389;SDS011;43217;52.694;6.214;2023-11-21T13:38:02;13.18;;;11.77;;
57389;SDS011;43217;52.694;6.214;2023-11-21T13:40:34;13.32;;;11.95;;
57389;SDS011;43217;52.694;6.214;2023-11-21T13:43:07;13.15;;;11.85;;
57389;SDS011;43217;52.694;6.214;2023-11-21T13:45:35;12.55;;;10.65;;
57389;SDS011;43217;52.694;6.214;2023-11-21T13:48:05;11.80;;;10.60;;
57389;SDS011;43217;52.694;6.214;2023-11-21T13:50:35;11.95;;;10.57;;
57389;SDS011;43217;52.694;6.214;2023-11-21T13:53:02;10.35;;;9.27;;
57389;SDS011;43217;52.694;6.214;2023-11-21T13:55:35;11.30;;;10.20;;
57389;SDS011;43217;52.694;6.214;2023-11-21T13:58:02;12.02;;;10.07;;
57389;SDS011;43217;52.694;6.214;2023-11-21T14:00:29;10.70;;;9.57;;
57389;SDS011;43217;52.694;6.214;2023-11-21T14:03:10;10.80;;;9.57;;
57389;SDS011;43217;52.694;6.214;2023-11-21T14:05:44;12.00;;;9.13;;
57389;SDS011;43217;52.694;6.214;2023-11-21T14:08:13;10.05;;;8.77;;
57389;SDS011;43217;52.694;6.214;2023-11-21T14:10:42;9.68;;;8.68;;
57389;SDS011;43217;52.694;6.214;2023-11-21T14:13:08;10.13;;;9.10;;
57389;SDS011;43217;52.694;6.214;2023-11-21T14:15:38;11.10;;;9.93;;
57389;SDS011;43217;52.694;6.214;2023-11-21T14:18:08;10.30;;;9.30;;
57389;SDS011;43217;52.694;6.214;2023-11-21T14:20:36;10.05;;;8.95;;
57389;SDS011;43217;52.694;6.214;2023-11-21T14:23:03;11.05;;;9.95;;
57389;SDS011;43217;52.694;6.214;2023-11-21T14:25:32;11.25;;;9.70;;
57389;SDS011;43217;52.694;6.214;2023-11-21T14:28:02;10.20;;;9.20;;
57389;SDS011;43217;52.694;6.214;2023-11-21T14:30:31;10.45;;;9.23;;
57389;SDS011;43217;52.694;6.214;2023-11-21T14:32:59;9.05;;;8.10;;
57389;SDS011;43217;52.694;6.214;2023-11-21T14:35:25;9.25;;;8.32;;
57389;SDS011;43217;52.694;6.214;2023-11-21T14:37:52;10.40;;;9.35;;
57389;SDS011;43217;52.694;6.214;2023-11-21T14:40:17;10.10;;;9.02;;